sensor_id;sensor_type;location;lat;lon;timestamp;noise_LAeq;noise_LA_min;noise_LA_max;noise_LA01;noise_LA95
74214;Laerm;62576;55.694;37.494;2022-09-13T00:01:17;59.13;55.23;65.29;;
74214;Laerm;62576;55.694;37.494;2022-09-13T00:03:47;60.94;56.08;68.29;;
74214;Laerm;62576;55.694;37.494;2022-09-13T00:06:19;57.29;55.20;62.47;;
74214;Laerm;62576;55.694;37.494;2022-09-13T00:08:52;58.85;55.36;66.46;;
74214;Laerm;62576;55.694;37.494;2022-09-13T00:11:23;57.36;55.20;61.62;;
74214;Laerm;62576;55.694;37.494;2022-09-13T00:13:54;58.49;55.00;64.93;;
74214;Laerm;62576;55.694;37.494;2022-09-13T00:16:26;58.90;55.56;68.90;;
74214;Laerm;62576;55.694;37.494;2022-09-13T00:18:58;57.96;55.41;64.44;;
74214;Laerm;62576;55.694;37.494;2022-09-13T00:21:30;59.05;55.19;66.66;;
74214;Laerm;62576;55.694;37.494;2022-09-13T00:24:00;60.14;55.40;67.77;;
74214;Laerm;62576;55.694;37.494;2022-09-13T00:26:30;59.16;56.06;65.68;;
74214;Laerm;62576;55.694;37.494;2022-09-13T00:29:00;57.99;55.54;62.98;;
74214;Laerm;62576;55.694;37.494;2022-09-13T00:31:29;57.73;55.12;64.72;;
74214;Laerm;62576;55.694;37.494;2022-09-13T00:34:01;57.80;48.59;67.47;;
74214;Laerm;62576;55.694;37.494;2022-09-13T00:36:33;59.72;52.34;66.85;;
74214;Laerm;62576;55.694;37.494;2022-09-13T00:39:04;52.05;41.32;61.42;;
74214;Laerm;62576;55.694;37.494;2022-09-13T00:41:34;55.04;41.19;62.83;;
74214;Laerm;62576;55.694;37.494;2022-09-13T00:44:04;57.65;44.36;65.65;;
74214;Laerm;62576;55.694;37.494;2022-09-13T00:46:54;56.32;42.31;63.07;;
74214;Laerm;62576;55.694;37.494;2022-09-13T00:49:30;57.68;55.03;63.07;;
74214;Laerm;62576;55.694;37.494;2022-09-13T00:52:02;58.52;53.47;65.23;;
74214;Laerm;62576;55.694;37.494;2022-09-13T00:54:38;57.62;55.27;64.88;;
74214;Laerm;62576;55.694;37.494;2022-09-13T00:57:11;57.66;45.84;63.17;;
74214;Laerm;62576;55.694;37.494;2022-09-13T00:59:45;57.11;55.08;62.19;;
74214;Laerm;62576;55.694;37.494;2022-09-13T01:02:16;58.08;55.48;63.31;;
74214;Laerm;62576;55.694;37.494;2022-09-13T01:04:46;57.40;55.18;62.70;;
74214;Laerm;62576;55.694;37.494;2022-09-13T01:07:18;57.22;55.18;63.24;;
74214;Laerm;62576;55.694;37.494;2022-09-13T01:09:49;59.85;55.90;65.59;;
74214;Laerm;62576;55.694;37.494;2022-09-13T01:12:28;57.87;55.34;64.15;;
74214;Laerm;62576;55.694;37.494;2022-09-13T01:15:03;56.71;55.10;62.56;;
74214;Laerm;62576;55.694;37.494;2022-09-13T01:17:34;57.73;55.06;64.13;;
74214;Laerm;62576;55.694;37.494;2022-09-13T01:20:07;58.10;55.04;65.39;;
74214;Laerm;62576;55.694;37.494;2022-09-13T01:29:33;59.41;55.59;66.15;;
74214;Laerm;62576;55.694;37.494;2022-09-13T01:32:19;62.29;55.34;74.53;;
74214;Laerm;62576;55.694;37.494;2022-09-13T01:34:58;58.37;55.64;66.55;;
74214;Laerm;62576;55.694;37.494;2022-09-13T01:37:43;59.07;55.60;66.06;;
74214;Laerm;62576;55.694;37.494;2022-09-13T01:40:27;58.16;55.15;64.54;;
74214;Laerm;62576;55.694;37.494;2022-09-13T01:43:21;58.29;55.41;66.50;;
74214;Laerm;62576;55.694;37.494;2022-09-13T01:46:01;58.59;54.92;64.76;;
74214;Laerm;62576;55.694;37.494;2022-09-13T01:48:43;57.61;55.38;62.82;;
74214;Laerm;62576;55.694;37.494;2022-09-13T01:51:25;59.14;55.13;69.04;;
74214;Laerm;62576;55.694;37.494;2022-09-13T01:54:08;58.61;55.15;64.09;;
74214;Laerm;62576;55.694;37.494;2022-09-13T01:56:46;58.85;55.44;65.24;;
74214;Laerm;62576;55.694;37.494;2022-09-13T01:59:21;58.99;55.43;66.96;;
74214;Laerm;62576;55.694;37.494;2022-09-13T02:01:57;59.18;55.39;68.88;;
74214;Laerm;62576;55.694;37.494;2022-09-13T02:04:34;59.70;55.37;66.85;;
74214;Laerm;62576;55.694;37.494;2022-09-13T02:07:09;59.07;55.71;66.10;;
74214;Laerm;62576;55.694;37.494;2022-09-13T02:09:46;58.91;55.38;66.12;;
74214;Laerm;62576;55.694;37.494;2022-09-13T02:12:20;59.28;55.49;66.80;;
74214;Laerm;62576;55.694;37.494;2022-09-13T02:14:55;59.65;55.76;66.96;;
74214;Laerm;62576;55.694;37.494;2022-09-13T02:17:30;60.54;56.17;66.30;;
74214;Laerm;62576;55.694;37.494;2022-09-13T02:20:07;59.08;55.39;66.27;;
74214;Laerm;62576;55.694;37.494;2022-09-13T02:22:42;59.41;55.17;67.33;;
74214;Laerm;62576;55.694;37.494;2022-09-13T02:25:16;58.45;55.02;65.47;;
74214;Laerm;62576;55.694;37.494;2022-09-13T02:27:52;58.42;55.55;63.75;;
74214;Laerm;62576;55.694;37.494;2022-09-13T02:30:27;60.13;56.03;67.56;;
74214;Laerm;62576;55.694;37.494;2022-09-13T02:33:02;59.24;55.51;66.25;;
74214;Laerm;62576;55.694;37.494;2022-09-13T02:35:37;59.98;55.59;66.60;;
74214;Laerm;62576;55.694;37.494;2022-09-13T02:38:12;59.99;56.16;66.48;;
74214;Laerm;62576;55.694;37.494;2022-09-13T02:40:48;59.46;55.80;65.91;;
74214;Laerm;62576;55.694;37.494;2022-09-13T02:43:26;60.11;56.20;68.27;;
74214;Laerm;62576;55.694;37.494;2022-09-13T02:46:10;58.66;55.51;67.91;;
74214;Laerm;62576;55.694;37.494;2022-09-13T02:48:49;60.60;55.62;66.84;;
74214;Laerm;62576;55.694;37.494;2022-09-13T02:51:32;60.37;56.13;65.82;;
74214;Laerm;62576;55.694;37.494;2022-09-13T02:54:15;60.91;55.49;73.63;;
74214;Laerm;62576;55.694;37.494;2022-09-13T02:56:51;61.19;56.48;67.58;;
74214;Laerm;62576;55.694;37.494;2022-09-13T02:59:22;60.68;55.59;69.51;;
74214;Laerm;62576;55.694;37.494;2022-09-13T03:01:57;60.91;56.05;69.48;;
74214;Laerm;62576;55.694;37.494;2022-09-13T03:04:28;62.51;56.39;70.76;;
74214;Laerm;62576;55.694;37.494;2022-09-13T03:07:00;62.48;55.94;70.22;;
74214;Laerm;62576;55.694;37.494;2022-09-13T03:09:32;63.14;56.80;70.31;;
74214;Laerm;62576;55.694;37.494;2022-09-13T03:12:15;62.09;55.77;68.75;;
74214;Laerm;62576;55.694;37.494;2022-09-13T03:14:55;61.64;55.74;69.06;;
74214;Laerm;62576;55.694;37.494;2022-09-13T03:17:46;63.29;57.26;69.67;;
74214;Laerm;62576;55.694;37.494;2022-09-13T03:20:24;62.52;56.95;69.36;;
74214;Laerm;62576;55.694;37.494;2022-09-13T03:23:24;63.01;57.11;71.37;;
74214;Laerm;62576;55.694;37.494;2022-09-13T03:26:22;63.42;57.83;69.12;;
74214;Laerm;62576;55.694;37.494;2022-09-13T03:29:05;64.53;58.46;71.27;;
74214;Laerm;62576;55.694;37.494;2022-09-13T03:31:48;63.02;56.93;70.26;;
74214;Laerm;62576;55.694;37.494;2022-09-13T03:34:29;63.08;57.89;71.84;;
74214;Laerm;62576;55.694;37.494;2022-09-13T03:37:05;64.28;58.21;71.55;;
74214;Laerm;62576;55.694;37.494;2022-09-13T03:39:44;64.05;57.39;71.27;;
74214;Laerm;62576;55.694;37.494;2022-09-13T03:42:20;61.87;56.92;68.03;;
74214;Laerm;62576;55.694;37.494;2022-09-13T03:44:54;64.76;58.31;72.57;;
74214;Laerm;62576;55.694;37.494;2022-09-13T03:47:27;63.66;58.35;69.78;;
74214;Laerm;62576;55.694;37.494;2022-09-13T03:50:00;64.87;58.04;71.51;;
74214;Laerm;62576;55.694;37.494;2022-09-13T03:52:31;64.91;57.67;71.17;;
74214;Laerm;62576;55.694;37.494;2022-09-13T03:55:00;64.29;58.01;72.49;;
74214;Laerm;62576;55.694;37.494;2022-09-13T03:57:30;65.97;58.92;75.73;;
74214;Laerm;62576;55.694;37.494;2022-09-13T04:00:01;64.08;58.36;68.92;;
74214;Laerm;62576;55.694;37.494;2022-09-13T04:02:31;65.18;58.60;70.61;;
74214;Laerm;62576;55.694;37.494;2022-09-13T04:05:01;65.66;58.82;70.67;;
74214;Laerm;62576;55.694;37.494;2022-09-13T04:07:31;66.23;59.53;71.36;;
74214;Laerm;62576;55.694;37.494;2022-09-13T04:10:03;66.26;58.76;70.75;;
74214;Laerm;62576;55.694;37.494;2022-09-13T04:12:33;65.99;59.27;72.15;;
74214;Laerm;62576;55.694;37.494;2022-09-13T04:15:04;67.44;59.42;74.88;;
74214;Laerm;62576;55.694;37.494;2022-09-13T04:17:34;66.41;60.11;72.09;;
74214;Laerm;62576;55.694;37.494;2022-09-13T04:20:05;66.48;60.49;71.28;;
74214;Laerm;62576;55.694;37.494;2022-09-13T04:22:35;67.74;60.58;73.05;;
74214;Laerm;62576;55.694;37.494;2022-09-13T04:25:07;66.63;58.94;73.16;;
74214;Laerm;62576;55.694;37.494;2022-09-13T04:27:38;66.75;60.08;72.08;;
74214;Laerm;62576;55.694;37.494;2022-09-13T04:30:09;66.50;58.96;71.89;;
74214;Laerm;62576;55.694;37.494;2022-09-13T04:32:41;67.12;59.24;71.57;;
74214;Laerm;62576;55.694;37.494;2022-09-13T04:35:12;66.79;60.25;72.41;;
74214;Laerm;62576;55.694;37.494;2022-09-13T04:37:47;67.27;60.38;71.44;;
74214;Laerm;62576;55.694;37.494;2022-09-13T04:40:18;67.59;60.55;71.94;;
74214;Laerm;62576;55.694;37.494;2022-09-13T04:42:50;67.87;62.18;72.29;;
74214;Laerm;62576;55.694;37.494;2022-09-13T04:45:20;68.11;61.58;74.77;;
74214;Laerm;62576;55.694;37.494;2022-09-13T04:47:51;68.56;61.08;73.40;;
74214;Laerm;62576;55.694;37.494;2022-09-13T04:50:22;68.47;62.59;73.49;;
74214;Laerm;62576;55.694;37.494;2022-09-13T04:52:54;67.96;62.11;74.07;;
74214;Laerm;62576;55.694;37.494;2022-09-13T04:55:22;67.75;60.95;72.72;;
74214;Laerm;62576;55.694;37.494;2022-09-13T04:57:53;68.15;61.73;72.89;;
74214;Laerm;62576;55.694;37.494;2022-09-13T05:00:23;67.35;61.79;73.96;;
74214;Laerm;62576;55.694;37.494;2022-09-13T05:02:54;67.53;59.61;76.48;;
74214;Laerm;62576;55.694;37.494;2022-09-13T05:05:24;67.70;62.13;73.61;;
74214;Laerm;62576;55.694;37.494;2022-09-13T05:07:56;68.68;63.69;72.84;;
74214;Laerm;62576;55.694;37.494;2022-09-13T05:10:27;68.57;63.86;75.40;;
74214;Laerm;62576;55.694;37.494;2022-09-13T05:12:59;68.51;61.70;73.56;;
74214;Laerm;62576;55.694;37.494;2022-09-13T05:15:31;68.25;63.13;72.92;;
74214;Laerm;62576;55.694;37.494;2022-09-13T05:18:00;68.11;62.18;73.32;;
74214;Laerm;62576;55.694;37.494;2022-09-13T05:20:30;68.70;63.19;73.93;;
74214;Laerm;62576;55.694;37.494;2022-09-13T05:23:00;67.97;61.07;73.00;;
74214;Laerm;62576;55.694;37.494;2022-09-13T05:25:32;68.25;62.87;73.65;;
74214;Laerm;62576;55.694;37.494;2022-09-13T05:28:01;68.35;63.43;80.96;;
74214;Laerm;62576;55.694;37.494;2022-09-13T05:30:31;68.78;62.40;73.79;;
74214;Laerm;62576;55.694;37.494;2022-09-13T05:33:01;68.73;63.63;73.75;;
74214;Laerm;62576;55.694;37.494;2022-09-13T05:35:31;68.59;63.71;72.73;;
74214;Laerm;62576;55.694;37.494;2022-09-13T05:38:04;68.71;64.15;73.35;;
74214;Laerm;62576;55.694;37.494;2022-09-13T05:40:35;69.29;63.95;73.89;;
74214;Laerm;62576;55.694;37.494;2022-09-13T05:43:05;69.84;63.09;81.08;;
74214;Laerm;62576;55.694;37.494;2022-09-13T05:45:35;69.57;62.51;76.12;;
74214;Laerm;62576;55.694;37.494;2022-09-13T05:48:05;69.12;63.34;73.61;;
74214;Laerm;62576;55.694;37.494;2022-09-13T05:50:38;67.97;62.14;72.68;;
74214;Laerm;62576;55.694;37.494;2022-09-13T05:53:08;67.75;61.57;72.72;;
74214;Laerm;62576;55.694;37.494;2022-09-13T05:55:36;69.23;61.73;77.82;;
74214;Laerm;62576;55.694;37.494;2022-09-13T05:58:06;69.09;62.27;73.91;;
74214;Laerm;62576;55.694;37.494;2022-09-13T06:00:36;68.30;62.77;77.41;;
74214;Laerm;62576;55.694;37.494;2022-09-13T06:03:06;68.26;62.27;73.04;;
74214;Laerm;62576;55.694;37.494;2022-09-13T06:05:36;67.87;62.30;71.93;;
74214;Laerm;62576;55.694;37.494;2022-09-13T06:08:06;68.16;61.97;73.34;;
74214;Laerm;62576;55.694;37.494;2022-09-13T06:10:38;68.70;61.55;73.32;;
74214;Laerm;62576;55.694;37.494;2022-09-13T06:13:08;68.25;60.42;73.74;;
74214;Laerm;62576;55.694;37.494;2022-09-13T06:15:38;68.01;60.90;73.34;;
74214;Laerm;62576;55.694;37.494;2022-09-13T06:18:05;68.63;61.87;72.66;;
74214;Laerm;62576;55.694;37.494;2022-09-13T06:20:35;68.48;61.85;72.55;;
74214;Laerm;62576;55.694;37.494;2022-09-13T06:23:05;67.97;61.28;72.96;;
74214;Laerm;62576;55.694;37.494;2022-09-13T06:25:35;68.01;62.35;72.58;;
74214;Laerm;62576;55.694;37.494;2022-09-13T06:28:07;68.63;62.57;78.28;;
74214;Laerm;62576;55.694;37.494;2022-09-13T06:30:37;67.99;61.72;72.15;;
74214;Laerm;62576;55.694;37.494;2022-09-13T06:33:07;67.84;60.57;72.30;;
74214;Laerm;62576;55.694;37.494;2022-09-13T06:35:37;67.91;61.89;72.80;;
74214;Laerm;62576;55.694;37.494;2022-09-13T06:38:06;68.29;62.60;72.54;;
74214;Laerm;62576;55.694;37.494;2022-09-13T06:40:36;68.05;61.71;75.58;;
74214;Laerm;62576;55.694;37.494;2022-09-13T06:43:08;68.60;60.44;74.63;;
74214;Laerm;62576;55.694;37.494;2022-09-13T06:45:39;68.49;61.39;76.96;;
74214;Laerm;62576;55.694;37.494;2022-09-13T06:48:09;68.60;63.06;72.75;;
74214;Laerm;62576;55.694;37.494;2022-09-13T06:50:39;68.08;61.81;72.33;;
74214;Laerm;62576;55.694;37.494;2022-09-13T06:53:09;68.88;61.87;75.39;;
74214;Laerm;62576;55.694;37.494;2022-09-13T06:55:37;67.73;61.61;72.85;;
74214;Laerm;62576;55.694;37.494;2022-09-13T06:58:08;67.76;60.80;72.66;;
74214;Laerm;62576;55.694;37.494;2022-09-13T07:00:40;66.43;61.45;72.95;;
74214;Laerm;62576;55.694;37.494;2022-09-13T07:03:10;67.74;60.40;73.73;;
74214;Laerm;62576;55.694;37.494;2022-09-13T07:05:40;68.16;60.46;72.47;;
74214;Laerm;62576;55.694;37.494;2022-09-13T07:08:10;67.67;60.30;72.20;;
74214;Laerm;62576;55.694;37.494;2022-09-13T07:10:40;67.17;57.80;72.96;;
74214;Laerm;62576;55.694;37.494;2022-09-13T07:13:11;66.61;59.31;71.63;;
74214;Laerm;62576;55.694;37.494;2022-09-13T07:15:41;68.27;60.39;73.51;;
74214;Laerm;62576;55.694;37.494;2022-09-13T07:18:11;67.74;57.36;73.70;;
74214;Laerm;62576;55.694;37.494;2022-09-13T07:20:41;66.68;57.59;71.73;;
74214;Laerm;62576;55.694;37.494;2022-09-13T07:23:11;68.52;58.46;79.46;;
74214;Laerm;62576;55.694;37.494;2022-09-13T07:25:41;67.01;61.04;72.55;;
74214;Laerm;62576;55.694;37.494;2022-09-13T07:28:13;67.55;62.15;77.45;;
74214;Laerm;62576;55.694;37.494;2022-09-13T07:30:42;68.10;62.15;74.29;;
74214;Laerm;62576;55.694;37.494;2022-09-13T07:33:12;67.83;62.28;76.62;;
74214;Laerm;62576;55.694;37.494;2022-09-13T07:35:43;68.08;59.29;72.38;;
74214;Laerm;62576;55.694;37.494;2022-09-13T07:38:13;66.85;56.87;75.85;;
74214;Laerm;62576;55.694;37.494;2022-09-13T07:40:52;67.63;59.61;75.19;;
74214;Laerm;62576;55.694;37.494;2022-09-13T07:43:23;66.97;58.43;73.42;;
74214;Laerm;62576;55.694;37.494;2022-09-13T07:45:57;66.93;61.24;72.66;;
74214;Laerm;62576;55.694;37.494;2022-09-13T07:48:30;67.06;61.28;79.64;;
74214;Laerm;62576;55.694;37.494;2022-09-13T07:51:01;67.51;59.81;72.18;;
74214;Laerm;62576;55.694;37.494;2022-09-13T07:53:33;68.53;60.36;73.48;;
74214;Laerm;62576;55.694;37.494;2022-09-13T07:56:04;67.38;59.54;72.70;;
74214;Laerm;62576;55.694;37.494;2022-09-13T07:58:37;67.22;61.12;76.26;;
74214;Laerm;62576;55.694;37.494;2022-09-13T08:01:08;66.50;59.44;72.26;;
74214;Laerm;62576;55.694;37.494;2022-09-13T08:03:39;66.76;60.92;71.97;;
74214;Laerm;62576;55.694;37.494;2022-09-13T08:06:09;67.53;62.10;71.49;;
74214;Laerm;62576;55.694;37.494;2022-09-13T08:08:39;68.50;63.15;79.75;;
74214;Laerm;62576;55.694;37.494;2022-09-13T08:11:13;67.42;63.35;71.34;;
74214;Laerm;62576;55.694;37.494;2022-09-13T08:13:47;66.56;59.11;71.51;;
74214;Laerm;62576;55.694;37.494;2022-09-13T08:16:18;68.25;62.12;72.58;;
74214;Laerm;62576;55.694;37.494;2022-09-13T08:18:49;67.10;59.80;72.87;;
74214;Laerm;62576;55.694;37.494;2022-09-13T08:21:20;67.90;60.94;75.62;;
74214;Laerm;62576;55.694;37.494;2022-09-13T08:23:53;68.59;62.20;82.95;;
74214;Laerm;62576;55.694;37.494;2022-09-13T08:26:24;67.98;62.47;73.78;;
74214;Laerm;62576;55.694;37.494;2022-09-13T08:29:00;67.34;62.23;75.15;;
74214;Laerm;62576;55.694;37.494;2022-09-13T08:31:30;67.84;63.29;72.96;;
74214;Laerm;62576;55.694;37.494;2022-09-13T08:34:00;67.80;61.39;72.48;;
74214;Laerm;62576;55.694;37.494;2022-09-13T08:36:30;67.14;59.58;72.94;;
74214;Laerm;62576;55.694;37.494;2022-09-13T08:39:00;68.95;61.20;76.42;;
74214;Laerm;62576;55.694;37.494;2022-09-13T08:41:51;72.03;62.56;90.09;;
74214;Laerm;62576;55.694;37.494;2022-09-13T08:44:27;68.00;63.02;75.98;;
74214;Laerm;62576;55.694;37.494;2022-09-13T08:47:06;66.93;58.81;75.69;;
74214;Laerm;62576;55.694;37.494;2022-09-13T08:49:44;67.76;57.34;74.55;;
74214;Laerm;62576;55.694;37.494;2022-09-13T08:52:23;67.57;58.00;73.93;;
74214;Laerm;62576;55.694;37.494;2022-09-13T08:54:54;67.28;58.85;73.10;;
74214;Laerm;62576;55.694;37.494;2022-09-13T08:57:29;67.34;60.54;72.61;;
74214;Laerm;62576;55.694;37.494;2022-09-13T09:00:08;67.32;61.72;74.72;;
74214;Laerm;62576;55.694;37.494;2022-09-13T09:02:51;66.91;57.84;73.09;;
74214;Laerm;62576;55.694;37.494;2022-09-13T09:05:27;66.95;61.64;73.88;;
74214;Laerm;62576;55.694;37.494;2022-09-13T09:08:01;67.23;59.42;79.68;;
74214;Laerm;62576;55.694;37.494;2022-09-13T09:10:36;67.23;60.66;74.08;;
74214;Laerm;62576;55.694;37.494;2022-09-13T09:13:13;67.01;60.23;72.35;;
74214;Laerm;62576;55.694;37.494;2022-09-13T09:15:51;66.92;58.76;71.94;;
74214;Laerm;62576;55.694;37.494;2022-09-13T09:18:24;66.15;59.33;71.58;;
74214;Laerm;62576;55.694;37.494;2022-09-13T09:20:55;66.43;58.65;78.23;;
74214;Laerm;62576;55.694;37.494;2022-09-13T09:23:29;65.26;59.02;71.18;;
74214;Laerm;62576;55.694;37.494;2022-09-13T09:26:14;66.98;61.65;76.13;;
74214;Laerm;62576;55.694;37.494;2022-09-13T09:28:46;67.21;62.07;74.40;;
74214;Laerm;62576;55.694;37.494;2022-09-13T09:31:24;66.37;60.86;74.04;;
74214;Laerm;62576;55.694;37.494;2022-09-13T09:34:06;66.84;61.37;71.89;;
74214;Laerm;62576;55.694;37.494;2022-09-13T09:36:42;66.53;60.10;71.94;;
74214;Laerm;62576;55.694;37.494;2022-09-13T09:39:14;66.72;60.18;71.74;;
74214;Laerm;62576;55.694;37.494;2022-09-13T09:41:44;66.71;61.13;76.44;;
74214;Laerm;62576;55.694;37.494;2022-09-13T09:44:19;66.68;59.72;77.91;;
74214;Laerm;62576;55.694;37.494;2022-09-13T09:46:54;66.52;58.58;81.47;;
74214;Laerm;62576;55.694;37.494;2022-09-13T09:49:29;66.09;58.56;71.58;;
74214;Laerm;62576;55.694;37.494;2022-09-13T09:52:27;66.56;58.22;78.81;;
74214;Laerm;62576;55.694;37.494;2022-09-13T09:55:00;66.38;60.27;71.71;;
74214;Laerm;62576;55.694;37.494;2022-09-13T09:57:51;65.99;59.90;77.91;;
74214;Laerm;62576;55.694;37.494;2022-09-13T10:00:24;66.55;59.64;77.06;;
74214;Laerm;62576;55.694;37.494;2022-09-13T10:02:59;66.10;59.07;75.11;;
74214;Laerm;62576;55.694;37.494;2022-09-13T10:05:31;67.60;56.00;76.61;;
74214;Laerm;62576;55.694;37.494;2022-09-13T10:08:02;67.12;55.27;80.55;;
74214;Laerm;62576;55.694;37.494;2022-09-13T10:10:38;66.86;58.35;73.24;;
74214;Laerm;62576;55.694;37.494;2022-09-13T10:13:13;66.31;58.00;81.22;;
74214;Laerm;62576;55.694;37.494;2022-09-13T10:15:59;66.88;59.48;78.48;;
74214;Laerm;62576;55.694;37.494;2022-09-13T10:18:32;66.63;60.51;72.97;;
74214;Laerm;62576;55.694;37.494;2022-09-13T10:21:05;65.10;58.35;68.94;;
74214;Laerm;62576;55.694;37.494;2022-09-13T10:23:36;65.06;58.59;70.90;;
74214;Laerm;62576;55.694;37.494;2022-09-13T10:26:09;66.77;58.76;71.82;;
74214;Laerm;62576;55.694;37.494;2022-09-13T10:28:43;66.94;61.03;71.68;;
74214;Laerm;62576;55.694;37.494;2022-09-13T10:31:17;67.19;61.61;72.45;;
74214;Laerm;62576;55.694;37.494;2022-09-13T10:33:56;67.11;60.05;73.97;;
74214;Laerm;62576;55.694;37.494;2022-09-13T10:36:29;66.30;56.74;72.81;;
74214;Laerm;62576;55.694;37.494;2022-09-13T10:39:03;66.97;57.68;78.40;;
74214;Laerm;62576;55.694;37.494;2022-09-13T10:41:35;66.71;60.18;77.20;;
74214;Laerm;62576;55.694;37.494;2022-09-13T10:44:22;67.47;61.13;73.41;;
74214;Laerm;62576;55.694;37.494;2022-09-13T10:46:54;67.38;60.95;78.27;;
74214;Laerm;62576;55.694;37.494;2022-09-13T10:49:36;65.69;60.01;74.09;;
74214;Laerm;62576;55.694;37.494;2022-09-13T10:52:23;69.99;59.07;89.93;;
74214;Laerm;62576;55.694;37.494;2022-09-13T10:54:50;66.78;60.89;73.73;;
74214;Laerm;62576;55.694;37.494;2022-09-13T10:57:32;67.11;61.39;73.28;;
74214;Laerm;62576;55.694;37.494;2022-09-13T11:00:04;66.16;60.76;72.05;;
74214;Laerm;62576;55.694;37.494;2022-09-13T11:02:55;66.30;59.28;71.09;;
74214;Laerm;62576;55.694;37.494;2022-09-13T11:05:31;67.29;60.41;78.15;;
74214;Laerm;62576;55.694;37.494;2022-09-13T11:08:29;68.06;58.46;78.34;;
74214;Laerm;62576;55.694;37.494;2022-09-13T11:11:10;66.66;58.07;73.02;;
74214;Laerm;62576;55.694;37.494;2022-09-13T11:13:56;66.82;59.31;80.96;;
74214;Laerm;62576;55.694;37.494;2022-09-13T11:16:36;67.20;60.06;72.43;;
74214;Laerm;62576;55.694;37.494;2022-09-13T11:19:21;66.18;60.37;71.30;;
74214;Laerm;62576;55.694;37.494;2022-09-13T11:22:15;66.20;60.20;72.03;;
74214;Laerm;62576;55.694;37.494;2022-09-13T11:25:02;67.07;60.06;73.82;;
74214;Laerm;62576;55.694;37.494;2022-09-13T11:27:45;66.30;56.73;72.20;;
74214;Laerm;62576;55.694;37.494;2022-09-13T11:30:20;66.88;58.96;72.95;;
74214;Laerm;62576;55.694;37.494;2022-09-13T11:33:16;66.67;60.33;73.74;;
74214;Laerm;62576;55.694;37.494;2022-09-13T11:36:09;67.32;60.16;75.67;;
74214;Laerm;62576;55.694;37.494;2022-09-13T11:38:51;68.57;59.54;78.09;;
74214;Laerm;62576;55.694;37.494;2022-09-13T11:41:29;67.50;58.61;81.54;;
74214;Laerm;62576;55.694;37.494;2022-09-13T11:44:28;66.33;59.35;74.74;;
74214;Laerm;62576;55.694;37.494;2022-09-13T11:47:07;66.49;61.17;71.81;;
74214;Laerm;62576;55.694;37.494;2022-09-13T11:52:51;66.14;59.83;72.80;;
74214;Laerm;62576;55.694;37.494;2022-09-13T11:55:27;66.75;61.31;75.89;;
74214;Laerm;62576;55.694;37.494;2022-09-13T11:58:00;67.04;61.50;72.56;;
74214;Laerm;62576;55.694;37.494;2022-09-13T12:00:37;67.29;59.44;76.48;;
74214;Laerm;62576;55.694;37.494;2022-09-13T12:03:15;69.04;60.74;87.25;;
74214;Laerm;62576;55.694;37.494;2022-09-13T12:05:50;66.54;59.55;72.19;;
74214;Laerm;62576;55.694;37.494;2022-09-13T12:08:25;67.47;59.94;73.36;;
74214;Laerm;62576;55.694;37.494;2022-09-13T12:11:02;66.84;58.90;81.51;;
74214;Laerm;62576;55.694;37.494;2022-09-13T12:13:39;67.10;59.47;72.97;;
74214;Laerm;62576;55.694;37.494;2022-09-13T12:16:15;66.46;59.54;71.73;;
74214;Laerm;62576;55.694;37.494;2022-09-13T12:18:48;65.88;59.45;76.04;;
74214;Laerm;62576;55.694;37.494;2022-09-13T12:21:21;67.83;60.79;74.98;;
74214;Laerm;62576;55.694;37.494;2022-09-13T12:23:57;67.65;59.85;75.31;;
74214;Laerm;62576;55.694;37.494;2022-09-13T12:26:37;68.18;58.92;73.35;;
74214;Laerm;62576;55.694;37.494;2022-09-13T12:29:13;67.11;59.39;72.52;;
74214;Laerm;62576;55.694;37.494;2022-09-13T12:31:44;67.28;59.14;73.15;;
74214;Laerm;62576;55.694;37.494;2022-09-13T12:34:19;66.97;58.87;73.62;;
74214;Laerm;62576;55.694;37.494;2022-09-13T12:37:09;65.71;56.46;70.05;;
74214;Laerm;62576;55.694;37.494;2022-09-13T12:40:07;66.43;55.41;71.80;;
74214;Laerm;62576;55.694;37.494;2022-09-13T12:46:00;67.06;62.42;73.70;;
74214;Laerm;62576;55.694;37.494;2022-09-13T12:51:50;66.00;60.02;71.03;;
74214;Laerm;62576;55.694;37.494;2022-09-13T12:54:43;66.92;56.25;76.72;;
74214;Laerm;62576;55.694;37.494;2022-09-13T12:57:30;66.30;58.52;71.10;;
74214;Laerm;62576;55.694;37.494;2022-09-13T13:00:12;66.44;59.55;74.13;;
74214;Laerm;62576;55.694;37.494;2022-09-13T13:02:58;67.26;62.33;72.12;;
74214;Laerm;62576;55.694;37.494;2022-09-13T13:05:32;66.24;60.57;74.89;;
74214;Laerm;62576;55.694;37.494;2022-09-13T13:08:06;67.32;60.79;74.52;;
74214;Laerm;62576;55.694;37.494;2022-09-13T13:10:44;67.57;60.01;76.23;;
74214;Laerm;62576;55.694;37.494;2022-09-13T13:13:33;66.80;60.66;75.34;;
74214;Laerm;62576;55.694;37.494;2022-09-13T13:16:20;66.89;59.98;76.05;;
74214;Laerm;62576;55.694;37.494;2022-09-13T13:18:54;66.95;60.38;72.85;;
74214;Laerm;62576;55.694;37.494;2022-09-13T13:21:39;66.48;59.40;71.09;;
74214;Laerm;62576;55.694;37.494;2022-09-13T13:24:40;67.64;57.81;77.34;;
74214;Laerm;62576;55.694;37.494;2022-09-13T13:27:37;65.89;59.37;73.11;;
74214;Laerm;62576;55.694;37.494;2022-09-13T13:33:23;66.64;59.83;75.50;;
74214;Laerm;62576;55.694;37.494;2022-09-13T13:35:56;66.74;61.19;71.69;;
74214;Laerm;62576;55.694;37.494;2022-09-13T13:38:42;67.22;59.50;74.56;;
74214;Laerm;62576;55.694;37.494;2022-09-13T13:41:42;67.56;61.23;76.55;;
74214;Laerm;62576;55.694;37.494;2022-09-13T13:47:41;66.99;57.80;74.69;;
74214;Laerm;62576;55.694;37.494;2022-09-13T13:50:20;68.62;60.51;78.51;;
74214;Laerm;62576;55.694;37.494;2022-09-13T13:52:54;67.98;60.31;73.18;;
74214;Laerm;62576;55.694;37.494;2022-09-13T13:55:40;67.32;61.75;72.33;;
74214;Laerm;62576;55.694;37.494;2022-09-13T13:58:29;67.11;60.48;71.73;;
74214;Laerm;62576;55.694;37.494;2022-09-13T14:01:02;66.34;58.40;71.72;;
74214;Laerm;62576;55.694;37.494;2022-09-13T14:03:49;67.23;60.12;74.50;;
74214;Laerm;62576;55.694;37.494;2022-09-13T14:06:28;67.76;60.03;83.41;;
74214;Laerm;62576;55.694;37.494;2022-09-13T14:09:12;66.77;59.16;72.24;;
74214;Laerm;62576;55.694;37.494;2022-09-13T14:11:56;67.30;60.46;72.80;;
74214;Laerm;62576;55.694;37.494;2022-09-13T14:14:36;66.90;59.55;75.38;;
74214;Laerm;62576;55.694;37.494;2022-09-13T14:17:32;66.29;57.97;71.47;;
74214;Laerm;62576;55.694;37.494;2022-09-13T14:20:14;66.43;57.56;71.74;;
74214;Laerm;62576;55.694;37.494;2022-09-13T14:22:45;67.30;59.43;72.72;;
74214;Laerm;62576;55.694;37.494;2022-09-13T14:25:23;66.33;59.68;72.75;;
74214;Laerm;62576;55.694;37.494;2022-09-13T14:27:55;66.86;60.22;85.42;;
74214;Laerm;62576;55.694;37.494;2022-09-13T14:30:32;66.43;61.97;72.91;;
74214;Laerm;62576;55.694;37.494;2022-09-13T14:33:03;68.50;59.51;87.61;;
74214;Laerm;62576;55.694;37.494;2022-09-13T14:35:36;68.01;60.34;85.18;;
74214;Laerm;62576;55.694;37.494;2022-09-13T14:38:11;67.55;53.53;77.13;;
74214;Laerm;62576;55.694;37.494;2022-09-13T14:40:46;67.05;59.04;76.14;;